Time;durP1;ratioP1;P1;durP2;ratioP2;P2;SDS_P1;SDS_P2;PMS_P1;PMS_P2;Temp;Humidity;BMP_temperature;BMP_pressure;BME280_temperature;BME280_humidity;BME280_pressure;Samples;Min_cycle;Max_cycle;Signal;HPM_P1;HPM_P2
2021/10/08 00:00:02;;;;;;;4.82;3.42;;;;;;;7.40;79.53;103280.53;2587539;55;20385;-72
2021/10/08 00:02:40;;;;;;;6.00;3.87;;;;;;;7.41;78.71;103282.25;2587730;55;20108;-73
2021/10/08 00:05:10;;;;;;;6.28;3.72;;;;;;;7.36;80.22;103285.00;2587640;55;20142;-72
2021/10/08 00:07:38;;;;;;;7.53;3.50;;;;;;;7.35;79.86;103292.13;2587863;55;20105;-72
2021/10/08 00:10:07;;;;;;;7.18;3.87;;;;;;;7.35;79.87;103285.91;2587518;55;20113;-72
2021/10/08 00:12:35;;;;;;;8.27;4.12;;;;;;;7.34;79.60;103297.47;2587583;55;20135;-72
2021/10/08 00:15:03;;;;;;;5.05;3.70;;;;;;;7.32;79.50;103297.50;2587308;55;20538;-72
2021/10/08 00:17:31;;;;;;;10.70;3.97;;;;;;;7.35;80.33;103304.50;2587228;55;20147;-71
2021/10/08 00:19:59;;;;;;;4.72;3.90;;;;;;;7.30;80.52;103295.78;2587670;55;20124;-71
2021/10/08 00:22:28;;;;;;;7.15;3.83;;;;;;;7.31;80.69;103309.00;2587349;55;20625;-72
2021/10/08 00:24:56;;;;;;;6.37;3.67;;;;;;;7.32;80.47;103307.25;2587408;55;20117;-71
2021/10/08 00:27:24;;;;;;;5.43;3.70;;;;;;;7.28;80.52;103301.13;2587459;55;20113;-71
2021/10/08 00:29:52;;;;;;;7.87;3.97;;;;;;;7.25;80.82;103303.84;2587638;55;20598;-71
2021/10/08 00:32:20;;;;;;;7.10;3.75;;;;;;;7.24;81.54;103307.41;2587235;55;20136;-71
2021/10/08 00:34:47;;;;;;;10.13;3.90;;;;;;;7.24;81.75;103310.91;2587733;55;20131;-71
2021/10/08 00:37:16;;;;;;;7.03;3.45;;;;;;;7.22;81.25;103306.56;2587196;55;20634;-71
2021/10/08 00:39:45;;;;;;;5.35;3.97;;;;;;;7.19;82.02;103303.94;2587164;55;20124;-72
2021/10/08 00:42:19;;;;;;;7.47;3.67;;;;;;;7.19;81.74;103301.28;2587408;55;20124;-71
2021/10/08 00:44:47;;;;;;;6.18;3.55;;;;;;;7.15;82.50;103308.44;2587537;55;20631;-71
2021/10/08 00:47:16;;;;;;;6.80;3.60;;;;;;;7.10;82.49;103308.53;2587479;55;20127;-71
2021/10/08 00:49:44;;;;;;;9.43;4.32;;;;;;;7.14;83.03;103312.00;2587816;55;20128;-72
2021/10/08 00:52:12;;;;;;;7.15;3.67;;;;;;;7.13;82.27;103301.44;2586789;55;20126;-72
2021/10/08 00:54:40;;;;;;;4.75;2.95;;;;;;;7.14;82.25;103312.00;2587792;55;20490;-72
2021/10/08 00:57:09;;;;;;;6.28;3.30;;;;;;;7.18;81.73;103312.81;2587665;55;20123;-73
2021/10/08 00:59:37;;;;;;;7.18;3.60;;;;;;;7.17;82.59;103313.72;2587635;55;20135;-71
2021/10/08 01:02:06;;;;;;;6.75;4.03;;;;;;;7.07;82.20;103305.94;2588083;55;20126;-71
2021/10/08 01:04:35;;;;;;;13.68;4.28;;;;;;;7.15;83.22;103307.56;2588402;55;20814;-71
2021/10/08 01:07:02;;;;;;;9.68;5.10;;;;;;;7.12;82.04;103303.19;2587662;55;20124;-71
2021/10/08 01:09:31;;;;;;;5.37;3.62;;;;;;;7.15;83.51;103307.56;2588412;55;20641;-71
2021/10/08 01:11:59;;;;;;;6.57;3.60;;;;;;;7.14;82.67;103305.84;2588314;55;20124;-71
2021/10/08 01:14:29;;;;;;;7.00;3.78;;;;;;;7.14;82.38;103312.00;2587815;55;20113;-70
2021/10/08 01:16:58;;;;;;;6.70;3.47;;;;;;;7.16;83.01;103314.63;2587912;55;20629;-71
2021/10/08 01:19:26;;;;;;;5.60;3.55;;;;;;;7.13;82.95;103314.72;2588199;55;20488;-71
2021/10/08 01:21:56;;;;;;;9.40;3.90;;;;;;;7.15;82.33;103313.75;2587620;55;20128;-71
2021/10/08 01:24:25;;;;;;;8.70;3.92;;;;;;;7.07;83.63;103321.00;2588463;55;20109;-71
2021/10/08 01:26:53;;;;;;;7.68;3.97;;;;;;;7.05;83.61;103322.78;2588047;55;20116;-71
2021/10/08 01:29:24;;;;;;;8.10;3.65;;;;;;;6.99;83.79;103307.00;2588014;55;20126;-71
2021/10/08 01:31:51;;;;;;;5.78;3.85;;;;;;;6.97;84.79;103312.31;2588388;55;20506;-72
2021/10/08 01:34:20;;;;;;;7.60;3.80;;;;;;;7.00;84.50;103322.88;2588221;55;20105;-71
2021/10/08 01:36:48;;;;;;;5.47;4.00;;;;;;;7.02;84.24;103325.50;2587883;55;20121;-71
2021/10/08 01:39:18;;;;;;;6.95;3.85;;;;;;;7.01;84.76;103321.97;2588204;55;20120;-72
2021/10/08 01:41:47;;;;;;;7.75;3.83;;;;;;;7.00;84.85;103322.03;2588000;55;20170;-72
2021/10/08 01:44:16;;;;;;;10.02;3.53;;;;;;;7.02;85.51;103322.84;2587883;55;20124;-71
2021/10/08 01:46:44;;;;;;;7.10;4.20;;;;;;;7.01;84.91;103332.59;2588270;55;20105;-72
2021/10/08 01:49:12;;;;;;;8.38;4.22;;;;;;;7.01;85.24;103327.28;2587941;55;20131;-72
2021/10/08 01:51:41;;;;;;;8.77;3.90;;;;;;;7.02;85.06;103329.06;2587763;55;20108;-71
2021/10/08 01:54:10;;;;;;;10.48;4.10;;;;;;;7.01;85.17;103323.75;2588144;55;20123;-72
2021/10/08 01:56:44;;;;;;;6.30;3.28;;;;;;;7.04;84.79;103336.97;2587826;55;20113;-72
2021/10/08 01:59:12;;;;;;;9.48;4.80;;;;;;;7.03;85.11;103324.59;2588017;55;20125;-72
2021/10/08 02:01:41;;;;;;;7.47;3.87;;;;;;;7.02;85.66;103337.03;2588040;55;20112;-72
2021/10/08 02:04:11;;;;;;;7.90;5.20;;;;;;;7.05;86.03;103333.41;2582801;55;20120;-71
2021/10/08 02:06:39;;;;;;;14.25;4.60;;;;;;;7.05;86.50;103334.31;2588047;55;20117;-72
2021/10/08 02:09:10;;;;;;;10.25;3.85;;;;;;;7.04;86.78;103339.63;2588052;55;20117;-72
2021/10/08 02:11:40;;;;;;;7.03;4.18;;;;;;;7.06;87.49;103335.16;2587518;55;20113;-71
2021/10/08 02:14:08;;;;;;;8.30;4.37;;;;;;;7.06;87.07;103329.84;2587798;55;20134;-71
2021/10/08 02:16:37;;;;;;;18.37;4.53;;;;;;;7.04;86.44;103337.88;2587584;55;20116;-72
2021/10/08 02:19:06;;;;;;;8.50;3.87;;;;;;;7.03;87.05;103338.78;2588057;55;20121;-72
2021/10/08 02:21:34;;;;;;;7.50;4.25;;;;;;;7.03;87.19;103337.88;2587910;55;20112;-71
2021/10/08 02:24:03;;;;;;;11.40;4.20;;;;;;;7.04;86.87;103339.63;2587866;55;20509;-72
2021/10/08 02:26:31;;;;;;;8.55;4.20;;;;;;;7.04;87.55;103337.88;2588110;55;20128;-72
2021/10/08 02:29:01;;;;;;;8.35;4.10;;;;;;;7.02;87.20;103347.63;2587890;55;20123;-72
2021/10/08 02:31:30;;;;;;;6.65;3.70;;;;;;;7.03;87.68;103344.06;2587778;55;20173;-72
2021/10/08 02:33:58;;;;;;;8.93;4.25;;;;;;;7.04;88.00;103353.78;2588259;55;20127;-72
2021/10/08 02:36:26;;;;;;;9.65;3.80;;;;;;;7.02;87.62;103345.00;2582427;55;20109;-72
2021/10/08 02:38:54;;;;;;;7.82;3.85;;;;;;;7.00;88.59;103344.13;2587972;55;20116;-72
2021/10/08 02:41:23;;;;;;;8.93;4.62;;;;;;;7.02;88.94;103347.63;2587652;55;20124;-73
2021/10/08 02:43:51;;;;;;;10.30;5.50;;;;;;;6.98;89.10;103345.06;2582665;55;20121;-72
2021/10/08 02:46:20;;;;;;;10.18;5.10;;;;;;;7.05;89.21;103355.53;2587725;55;20117;-73
2021/10/08 02:48:48;;;;;;;12.45;4.65;;;;;;;7.03;88.47;103346.72;2588026;55;20130;-73
2021/10/08 02:51:16;;;;;;;8.52;4.57;;;;;;;7.05;89.33;103344.91;2587297;55;20121;-73
2021/10/08 02:53:44;;;;;;;10.32;4.00;;;;;;;7.09;88.86;103345.75;2587734;55;20136;-73
2021/10/08 02:56:12;;;;;;;7.80;4.50;;;;;;;7.13;88.55;103341.25;2582861;55;20112;-72
2021/10/08 02:58:40;;;;;;;6.53;3.75;;;;;;;7.11;88.87;103343.94;2582781;55;20117;-72
2021/10/08 03:01:08;;;;;;;6.60;4.18;;;;;;;7.14;88.43;103335.03;2587901;55;20531;-72
2021/10/08 03:03:38;;;;;;;7.32;4.12;;;;;;;7.14;89.56;103345.66;2588028;55;20522;-72
2021/10/08 03:06:05;;;;;;;12.70;4.93;;;;;;;7.13;89.69;103349.22;2587274;55;20120;-72
2021/10/08 03:08:33;;;;;;;9.50;4.60;;;;;;;7.14;88.63;103348.31;2588231;55;20145;-71
2021/10/08 03:11:02;;;;;;;7.93;3.83;;;;;;;7.12;89.14;103352.78;2588050;55;20121;-72
2021/10/08 03:13:31;;;;;;;6.45;3.60;;;;;;;7.10;89.10;103340.38;2587878;55;20176;-71
2021/10/08 03:15:59;;;;;;;9.40;3.72;;;;;;;7.12;89.10;103344.81;2587793;55;20146;-72
2021/10/08 03:18:27;;;;;;;8.65;3.92;;;;;;;7.14;89.44;103348.31;2587707;55;20519;-70
2021/10/08 03:20:57;;;;;;;11.85;4.22;;;;;;;7.14;89.00;103354.47;2587428;55;20139;-71
2021/10/08 03:23:24;;;;;;;11.23;4.75;;;;;;;7.17;88.92;103350.91;2588002;55;20510;-71
2021/10/08 03:25:52;;;;;;;8.32;4.00;;;;;;;7.16;89.51;103352.66;2587807;55;20127;-70
2021/10/08 03:28:20;;;;;;;9.20;4.65;;;;;;;7.18;89.48;103355.31;2587485;55;20116;-73
2021/10/08 03:30:48;;;;;;;7.40;3.67;;;;;;;7.18;89.68;103355.31;2587707;55;20156;-72
2021/10/08 03:33:18;;;;;;;6.35;4.45;;;;;;;7.16;90.86;103357.12;2587837;55;20123;-72
2021/10/08 03:35:47;;;;;;;15.13;4.30;;;;;;;7.18;90.10;103369.47;2587475;55;20115;-72
2021/10/08 03:38:17;;;;;;;9.02;4.22;;;;;;;7.18;90.25;103360.62;2587921;55;20120;-72
2021/10/08 03:40:50;;;;;;;7.90;4.50;;;;;;;7.19;90.46;103360.59;2587533;55;20128;-72
2021/10/08 03:43:18;;;;;;;11.60;4.57;;;;;;;7.19;89.95;103362.37;2587664;55;20093;-73
2021/10/08 03:45:49;;;;;;;8.45;4.43;;;;;;;7.20;90.71;103358.81;2587740;55;20109;-72
2021/10/08 03:48:33;;;;;;;8.50;3.78;;;;;;;7.05;89.97;103344.91;2587643;55;20123;-73
2021/10/08 03:51:02;;;;;;;10.15;3.90;;;;;;;7.20;90.71;103369.41;2587709;55;20598;-72
2021/10/08 03:53:32;;;;;;;9.77;4.80;;;;;;;7.23;89.59;103372.03;2587695;55;20506;-73
2021/10/08 03:56:00;;;;;;;15.77;4.10;;;;;;;7.19;90.62;103362.37;2587757;55;20124;-72
2021/10/08 03:58:28;;;;;;;9.57;4.18;;;;;;;7.20;90.47;103366.78;2587840;55;20117;-73
2021/10/08 04:00:56;;;;;;;7.95;4.32;;;;;;;7.20;90.65;103369.41;2587586;55;20542;-72
2021/10/08 04:03:25;;;;;;;8.52;3.92;;;;;;;7.18;91.27;103372.13;2587895;55;20611;-73
2021/10/08 04:05:53;;;;;;;11.63;4.70;;;;;;;7.20;91.83;103386.25;2587312;55;20121;-72
2021/10/08 04:08:21;;;;;;;28.73;6.00;;;;;;;7.22;91.22;103367.62;2587616;55;20590;-72
2021/10/08 04:10:52;;;;;;;9.85;4.55;;;;;;;7.20;91.07;103364.12;2587500;55;20159;-71
2021/10/08 04:13:20;;;;;;;7.05;4.07;;;;;;;7.20;90.63;103367.66;2587475;55;20508;-71
2021/10/08 04:15:48;;;;;;;11.93;4.47;;;;;;;7.21;91.28;103364.09;2582020;55;20139;-72
2021/10/08 04:18:16;;;;;;;21.02;4.30;;;;;;;7.21;91.42;103368.50;2587562;55;20503;-72
2021/10/08 04:20:45;;;;;;;8.32;4.82;;;;;;;7.21;90.75;103371.16;2587248;55;20124;-72
2021/10/08 04:23:13;;;;;;;13.98;4.78;;;;;;;7.23;91.05;103380.00;2587716;55;20117;-71
2021/10/08 04:25:41;;;;;;;27.40;6.25;;;;;;;7.23;91.12;103378.22;2587666;55;20113;-70
2021/10/08 04:28:11;;;;;;;24.37;4.87;;;;;;;7.27;91.22;103383.50;2587675;55;20698;-71
2021/10/08 04:30:39;;;;;;;30.70;6.68;;;;;;;7.29;90.42;103379.88;2587277;55;20116;-70
2021/10/08 04:33:15;;;;;;;14.55;4.62;;;;;;;7.29;90.85;103377.22;2587699;55;20250;-71
2021/10/08 04:35:43;;;;;;;13.02;4.55;;;;;;;7.25;90.59;103372.88;2582534;55;20120;-72
2021/10/08 04:38:11;;;;;;;9.18;4.25;;;;;;;7.25;91.77;103378.19;2588672;55;20105;-71
2021/10/08 04:40:40;;;;;;;7.10;4.37;;;;;;;7.23;92.22;103380.00;2588198;55;20109;-71
2021/10/08 04:43:08;;;;;;;10.13;4.87;;;;;;;7.21;91.66;103376.47;2588018;55;20138;-72
2021/10/08 04:45:37;;;;;;;17.62;5.32;;;;;;;7.21;92.33;103376.47;2588350;55;20113;-72
2021/10/08 04:48:05;;;;;;;19.85;5.00;;;;;;;7.20;92.31;103382.69;2588420;55;20524;-71
2021/10/08 04:50:33;;;;;;;21.45;5.87;;;;;;;7.22;92.58;103386.22;2587988;55;20401;-71
2021/10/08 04:53:13;;;;;;;25.95;6.85;;;;;;;7.24;93.37;103387.06;2588709;55;20530;-71
2021/10/08 04:55:43;;;;;;;24.05;6.93;;;;;;;7.18;92.68;103390.72;2587647;55;20120;-71
2021/10/08 04:58:11;;;;;;;16.48;5.80;;;;;;;7.14;92.61;103380.19;2588486;55;20108;-72
2021/10/08 05:00:45;;;;;;;33.47;6.68;;;;;;;7.20;93.10;103401.28;2587194;55;20125;-71
2021/10/08 05:03:16;;;;;;;13.73;5.37;;;;;;;7.19;93.49;103399.53;2584579;55;20113;-71
2021/10/08 05:05:47;;;;;;;12.55;5.45;;;;;;;7.19;93.14;103405.75;2585059;55;20493;-72
2021/10/08 05:08:16;;;;;;;12.88;5.18;;;;;;;7.23;93.30;103401.25;2584787;55;20117;-71
2021/10/08 05:10:45;;;;;;;24.48;6.53;;;;;;;7.23;92.99;103403.91;2583500;55;20630;-72
2021/10/08 05:13:13;;;;;;;17.35;6.12;;;;;;;7.26;93.00;103395.87;2583152;55;20116;-71
2021/10/08 05:15:44;;;;;;;12.57;5.15;;;;;;;7.34;92.59;103409.91;2582541;55;20144;-71
2021/10/08 05:18:13;;;;;;;14.50;6.85;;;;;;;7.32;92.32;103401.09;2582865;55;20121;-71
2021/10/08 05:20:41;;;;;;;17.05;7.10;;;;;;;7.32;92.71;103401.09;2582742;55;20629;-71
2021/10/08 05:23:09;;;;;;;10.20;5.07;;;;;;;7.32;93.09;103409.06;2583075;55;20132;-71
2021/10/08 05:25:38;;;;;;;24.70;5.93;;;;;;;7.35;92.86;103409.00;2582730;55;20512;-71
2021/10/08 05:28:07;;;;;;;22.75;6.40;;;;;;;7.35;92.19;103422.28;2583097;55;20113;-72
2021/10/08 05:30:35;;;;;;;12.68;5.68;;;;;;;7.40;92.93;103423.94;2583057;55;20135;-71
2021/10/08 05:33:06;;;;;;;16.00;6.65;;;;;;;7.37;92.36;103417.81;2584670;55;20131;-72
2021/10/08 05:35:34;;;;;;;15.18;5.82;;;;;;;7.37;93.06;103415.12;2585198;55;20166;-72
2021/10/08 05:38:02;;;;;;;20.12;6.32;;;;;;;7.37;92.81;103424.91;2585271;55;20112;-73
2021/10/08 05:40:30;;;;;;;23.08;8.25;;;;;;;7.35;93.81;103416.06;2584114;55;20120;-72
2021/10/08 05:42:58;;;;;;;18.17;7.70;;;;;;;7.38;93.56;103426.66;2585384;55;20125;-72
2021/10/08 05:45:26;;;;;;;13.13;6.22;;;;;;;7.37;93.39;103431.06;2584234;55;20123;-72
2021/10/08 05:47:54;;;;;;;20.70;6.95;;;;;;;7.37;93.58;103431.06;2585312;55;20116;-72
2021/10/08 05:50:24;;;;;;;14.40;6.12;;;;;;;7.37;93.02;103425.78;2584613;55;20554;-73
2021/10/08 05:52:51;;;;;;;10.63;6.03;;;;;;;7.38;93.45;103432.81;2583283;55;20132;-71
2021/10/08 05:55:22;;;;;;;16.10;6.40;;;;;;;7.39;93.55;103431.06;2579809;55;20376;-71
2021/10/08 05:57:50;;;;;;;26.03;7.80;;;;;;;7.41;93.54;103437.22;2580773;55;20619;-71
2021/10/08 06:00:18;;;;;;;14.63;5.43;;;;;;;7.40;93.20;103435.47;2584000;55;20515;-70
2021/10/08 06:02:46;;;;;;;11.93;5.45;;;;;;;7.37;92.20;103439.06;2585348;55;20112;-69
2021/10/08 06:05:15;;;;;;;19.17;6.50;;;;;;;7.36;93.88;103439.97;2577151;55;20120;-70
2021/10/08 06:07:45;;;;;;;10.13;5.45;;;;;;;7.35;93.55;103437.31;2577264;55;20160;-71
2021/10/08 06:10:14;;;;;;;13.20;6.05;;;;;;;7.38;93.45;103448.75;2579476;55;20121;-71
2021/10/08 06:12:43;;;;;;;23.08;6.32;;;;;;;7.37;93.80;103439.06;2585548;55;20117;-69
2021/10/08 06:15:11;;;;;;;20.25;6.93;;;;;;;7.40;94.09;103453.16;2583984;55;20136;-73
2021/10/08 06:17:40;;;;;;;15.68;6.68;;;;;;;7.44;93.56;103453.09;2583941;55;20112;-73
2021/10/08 06:20:09;;;;;;;15.00;6.80;;;;;;;7.46;92.87;103455.72;2584520;55;20113;-72
2021/10/08 06:22:39;;;;;;;31.42;6.82;;;;;;;7.52;93.80;103450.31;2582952;55;20154;-72
2021/10/08 06:25:10;;;;;;;13.75;5.82;;;;;;;7.47;93.44;103441.53;2582379;55;20113;-72
2021/10/08 06:27:38;;;;;;;15.13;6.30;;;;;;;7.62;92.49;103462.53;2582822;55;20124;-72
2021/10/08 06:30:08;;;;;;;15.18;5.70;;;;;;;7.63;92.31;103450.97;2582870;55;20703;-74
2021/10/08 06:32:38;;;;;;;25.52;7.37;;;;;;;7.70;93.61;103465.03;2585819;55;20132;-73
2021/10/08 06:35:07;;;;;;;21.87;7.03;;;;;;;7.77;91.62;103460.47;2586051;55;20626;-73
2021/10/08 06:37:35;;;;;;;20.95;8.40;;;;;;;7.80;92.67;103463.06;2587448;55;20132;-73
2021/10/08 06:40:04;;;;;;;15.93;7.47;;;;;;;7.86;92.31;103470.03;2586942;55;20116;-73
2021/10/08 06:42:33;;;;;;;29.10;7.28;;;;;;;7.88;92.47;103463.78;2587251;55;20492;-73
2021/10/08 06:45:04;;;;;;;13.75;6.43;;;;;;;7.91;92.31;103463.72;2586582;55;20730;-73
2021/10/08 06:47:32;;;;;;;28.33;6.97;;;;;;;7.89;91.76;103470.00;2586136;55;20129;-73
2021/10/08 06:50:00;;;;;;;28.08;7.15;;;;;;;7.94;91.60;103470.75;2586190;55;20138;-73
2021/10/08 06:52:28;;;;;;;36.33;7.45;;;;;;;7.98;91.99;103475.13;2586513;55;20125;-73
2021/10/08 06:54:56;;;;;;;13.23;5.50;;;;;;;8.06;92.39;103480.28;2586062;55;20617;-73
2021/10/08 06:57:24;;;;;;;14.23;5.85;;;;;;;8.14;91.79;103480.13;2586280;55;20124;-73
2021/10/08 06:59:54;;;;;;;15.77;5.80;;;;;;;8.22;91.70;103475.50;2587077;55;20125;-73
2021/10/08 07:02:22;;;;;;;36.85;8.07;;;;;;;8.28;91.05;103469.19;2587612;55;20116;-72
2021/10/08 07:04:50;;;;;;;26.00;7.40;;;;;;;8.39;91.45;103469.81;2588148;55;20162;-73
2021/10/08 07:07:17;;;;;;;13.45;6.22;;;;;;;8.48;90.12;103482.06;2587822;55;20160;-72
2021/10/08 07:09:46;;;;;;;17.12;6.57;;;;;;;8.54;88.02;103491.72;2587747;55;20220;-73
2021/10/08 07:12:14;;;;;;;8.60;5.45;;;;;;;8.55;88.04;103490.81;2588029;55;20121;-73
2021/10/08 07:14:42;;;;;;;15.88;8.23;;;;;;;8.53;88.23;103490.84;2587865;55;20109;-73
2021/10/08 07:17:11;;;;;;;27.33;8.57;;;;;;;8.55;88.50;103499.66;2587684;55;20129;-72
2021/10/08 07:19:39;;;;;;;31.00;11.25;;;;;;;8.60;91.00;103497.78;2588163;55;20124;-73
2021/10/08 07:22:10;;;;;;;19.45;7.18;;;;;;;8.69;88.91;103504.69;2587558;55;20670;-73
2021/10/08 07:24:38;;;;;;;10.82;5.90;;;;;;;8.72;88.40;103501.97;2587794;55;20120;-72
2021/10/08 07:27:06;;;;;;;12.75;6.20;;;;;;;8.71;88.66;103507.31;2587678;55;20633;-73
2021/10/08 07:29:34;;;;;;;27.10;6.60;;;;;;;8.77;89.48;103504.53;2588151;55;20120;-73
2021/10/08 07:32:02;;;;;;;29.52;7.37;;;;;;;8.81;88.10;103499.97;2587517;55;20122;-73
2021/10/08 07:34:32;;;;;;;14.15;6.05;;;;;;;8.83;87.97;103504.37;2587904;55;20112;-73
2021/10/08 07:36:59;;;;;;;19.35;5.80;;;;;;;8.85;88.23;103504.34;2588033;55;20118;-73
2021/10/08 07:39:27;;;;;;;22.10;6.47;;;;;;;8.83;88.72;103501.72;2587766;55;20515;-72
2021/10/08 07:41:55;;;;;;;11.57;5.53;;;;;;;8.83;89.97;103506.16;2587780;55;20177;-72
2021/10/08 07:44:23;;;;;;;31.05;7.20;;;;;;;8.86;89.24;103516.75;2587748;55;20124;-73
2021/10/08 07:46:53;;;;;;;22.33;8.07;;;;;;;8.87;88.81;103507.84;2581955;55;20132;-73
2021/10/08 07:49:20;;;;;;;18.50;7.07;;;;;;;8.94;88.35;103516.56;2587861;55;20115;-72
2021/10/08 07:51:49;;;;;;;31.52;7.55;;;;;;;9.00;88.60;103516.41;2587712;55;20171;-73
2021/10/08 07:54:17;;;;;;;16.95;7.85;;;;;;;9.07;88.24;103509.16;2587767;55;20125;-72
2021/10/08 07:56:45;;;;;;;15.95;7.05;;;;;;;9.17;89.21;103516.00;2587721;55;20105;-73
2021/10/08 07:59:13;;;;;;;16.90;7.15;;;;;;;9.19;87.66;103506.19;2587958;55;20123;-74
2021/10/08 08:01:41;;;;;;;11.63;6.35;;;;;;;9.23;89.64;103497.22;2587425;55;20117;-73
2021/10/08 08:04:09;;;;;;;13.80;7.75;;;;;;;9.28;87.86;103502.44;2587989;55;20116;-73
2021/10/08 08:06:37;;;;;;;11.68;6.60;;;;;;;9.31;88.12;103503.19;2587811;55;20134;-73
2021/10/08 08:09:06;;;;;;;43.42;9.23;;;;;;;9.25;88.06;103508.69;2582313;55;20146;-73
2021/10/08 08:11:34;;;;;;;14.87;7.18;;;;;;;9.23;86.88;103505.22;2587686;55;20113;-73
2021/10/08 08:14:02;;;;;;;32.53;8.68;;;;;;;9.33;89.47;103505.84;2587722;55;20649;-73
2021/10/08 08:16:30;;;;;;;14.13;7.87;;;;;;;9.37;87.47;103503.97;2587315;55;20122;-73
2021/10/08 08:18:58;;;;;;;16.70;7.30;;;;;;;9.45;88.33;103512.66;2587908;55;20146;-73
2021/10/08 08:21:25;;;;;;;14.98;6.87;;;;;;;9.47;86.68;103502.81;2587653;55;20120;-73
2021/10/08 08:23:53;;;;;;;18.52;7.87;;;;;;;9.48;85.44;103504.56;2587438;55;20105;-73
2021/10/08 08:26:23;;;;;;;14.45;7.28;;;;;;;9.49;86.59;103493.00;2587686;55;20646;-73
2021/10/08 08:28:50;;;;;;;17.62;8.13;;;;;;;9.56;85.85;103494.59;2587715;55;20630;-73
2021/10/08 08:31:18;;;;;;;20.65;9.15;;;;;;;9.66;86.78;103497.00;2587375;55;20125;-73
2021/10/08 08:33:46;;;;;;;26.10;8.85;;;;;;;9.81;86.72;103509.03;2587852;55;20108;-73
2021/10/08 08:36:15;;;;;;;22.10;7.50;;;;;;;9.86;85.34;103500.00;2587303;55;20120;-73
2021/10/08 08:38:42;;;;;;;35.70;13.02;;;;;;;9.92;85.11;103500.72;2587375;55;20117;-73
2021/10/08 08:41:11;;;;;;;47.70;23.80;;;;;;;10.01;85.67;103508.47;2587651;55;20127;-74
2021/10/08 08:43:40;;;;;;;40.90;14.82;;;;;;;10.08;84.11;103503.88;2587834;55;20113;-73
2021/10/08 08:46:07;;;;;;;33.70;16.37;;;;;;;10.20;85.33;103511.50;2587139;55;20140;-73
2021/10/08 08:48:36;;;;;;;20.12;8.02;;;;;;;10.26;82.71;103510.44;2587726;55;20124;-72
2021/10/08 08:51:04;;;;;;;42.75;10.93;;;;;;;10.23;84.94;103513.22;2587403;55;20113;-72
2021/10/08 08:53:31;;;;;;;27.20;11.40;;;;;;;10.12;82.77;103503.75;2587424;55;20117;-74
2021/10/08 08:55:59;;;;;;;22.50;8.35;;;;;;;10.05;82.33;103514.59;2582029;55;20113;-73
2021/10/08 08:58:27;;;;;;;25.08;8.43;;;;;;;10.01;83.43;103509.38;2587504;55;20506;-73
2021/10/08 09:01:00;;;;;;;28.58;9.57;;;;;;;10.04;83.44;103508.41;2587421;55;20120;-73
2021/10/08 09:03:28;;;;;;;16.95;7.53;;;;;;;10.05;84.11;103509.28;2587805;55;20121;-73
2021/10/08 09:05:56;;;;;;;24.50;9.20;;;;;;;10.15;83.54;103516.09;2582245;55;20124;-73
2021/10/08 09:08:32;;;;;;;45.28;9.75;;;;;;;10.23;83.21;103513.22;2587453;55;20130;-73
2021/10/08 09:11:05;;;;;;;20.60;8.00;;;;;;;10.17;83.63;103522.25;2587431;55;20108;-72
2021/10/08 09:13:33;;;;;;;27.55;8.50;;;;;;;10.11;83.21;103515.31;2587479;55;20653;-73
2021/10/08 09:16:04;;;;;;;19.67;10.02;;;;;;;10.10;83.70;103518.88;2587117;55;20139;-73
2021/10/08 09:18:33;;;;;;;24.77;14.67;;;;;;;9.95;82.67;103508.66;2588021;55;20932;-72
2021/10/08 09:21:04;;;;;;;41.22;16.52;;;;;;;10.01;83.46;103524.47;2587888;55;20113;-73
2021/10/08 09:23:34;;;;;;;23.35;14.30;;;;;;;9.99;83.04;103523.66;2588395;55;20113;-73
2021/10/08 09:26:04;;;;;;;32.38;13.80;;;;;;;10.03;83.17;103528.00;2588107;55;20146;-74
2021/10/08 09:28:32;;;;;;;18.80;9.88;;;;;;;10.05;83.43;103526.16;2588543;55;20155;-73
2021/10/08 09:31:00;;;;;;;19.77;9.40;;;;;;;10.11;83.27;103520.63;2587927;55;20135;-73
2021/10/08 09:33:31;;;;;;;16.37;8.98;;;;;;;10.24;83.80;103517.63;2588621;55;20100;-73
2021/10/08 09:36:01;;;;;;;19.45;8.35;;;;;;;10.46;82.21;103509.03;2588191;55;20538;-73
2021/10/08 09:38:33;;;;;;;19.65;8.15;;;;;;;10.67;80.41;103513.69;2587972;55;20116;-73
2021/10/08 09:41:05;;;;;;;14.32;9.30;;;;;;;10.94;81.97;103511.09;2588247;55;20626;-73
2021/10/08 09:43:33;;;;;;;19.40;7.78;;;;;;;11.19;81.65;103518.28;2588713;55;20112;-73
2021/10/08 09:46:02;;;;;;;21.05;10.00;;;;;;;11.27;77.79;103523.38;2587863;55;20121;-73
2021/10/08 09:48:41;;;;;;;19.23;9.73;;;;;;;11.40;77.38;103508.69;2588319;55;20104;-73
2021/10/08 09:51:12;;;;;;;30.35;8.68;;;;;;;11.54;78.46;103512.66;2588232;55;20131;-73
2021/10/08 09:53:56;;;;;;;20.85;8.35;;;;;;;11.82;77.15;103520.59;2588127;55;20120;-74
2021/10/08 09:56:32;;;;;;;19.05;8.60;;;;;;;11.80;77.06;103511.75;2588079;55;20104;-73
2021/10/08 09:59:02;;;;;;;15.52;7.97;;;;;;;11.77;74.52;103510.97;2582899;55;20135;-74
2021/10/08 10:01:33;;;;;;;15.73;7.57;;;;;;;11.76;75.06;103506.56;2587680;55;20138;-73
2021/10/08 10:04:03;;;;;;;;;;;;;;;12.00;74.33;103504.78;2588865;55;20113;-73
2021/10/08 10:06:31;;;;;;;20.23;8.68;;;;;;;11.96;75.14;103495.16;2587833;55;19995;-73
2021/10/08 10:09:01;;;;;;;16.27;8.65;;;;;;;12.02;73.74;103481.56;2588260;55;20128;-73
2021/10/08 10:11:30;;;;;;;20.30;9.25;;;;;;;12.00;72.82;103486.06;2588036;55;20109;-73
2021/10/08 10:13:59;;;;;;;20.77;9.25;;;;;;;12.10;74.09;103490.16;2587961;55;20109;-73
2021/10/08 10:16:29;;;;;;;17.45;8.63;;;;;;;12.19;73.93;103482.72;2587928;55;20135;-73
2021/10/08 10:18:59;;;;;;;27.40;9.33;;;;;;;12.33;72.39;103472.38;2588418;55;20124;-73
2021/10/08 10:21:32;;;;;;;20.67;8.27;;;;;;;12.37;72.90;103479.34;2587893;55;20159;-73
2021/10/08 10:24:02;;;;;;;36.15;12.13;;;;;;;12.41;71.97;103480.09;2588168;55;20125;-73
2021/10/08 10:26:33;;;;;;;24.50;11.63;;;;;;;12.25;70.18;103480.69;2588054;55;20132;-73
2021/10/08 10:29:02;;;;;;;56.03;23.40;;;;;;;12.06;72.62;103485.88;2588039;55;20131;-73
2021/10/08 10:31:32;;;;;;;22.77;10.05;;;;;;;11.94;71.85;103491.66;2587757;55;20134;-73
2021/10/08 10:34:01;;;;;;;108.75;53.70;;;;;;;12.00;74.49;103494.09;2588074;55;20130;-73
2021/10/08 10:36:32;;;;;;;47.97;16.35;;;;;;;12.13;73.21;103491.00;2587362;55;20648;-72
2021/10/08 10:39:18;;;;;;;27.60;11.52;;;;;;;12.19;72.84;103497.00;2588300;55;20669;-73
2021/10/08 10:41:47;;;;;;;72.95;29.60;;;;;;;11.98;74.10;103487.94;2587891;55;20131;-73
2021/10/08 10:44:21;;;;;;;23.38;8.70;;;;;;;12.00;73.42;103491.41;2587608;55;20115;-73
2021/10/08 10:46:55;;;;;;;48.38;21.42;;;;;;;12.08;73.62;103489.38;2587984;55;20131;-72
2021/10/08 10:49:52;;;;;;;15.77;7.43;;;;;;;12.33;73.20;103474.19;2588198;55;20125;-73
2021/10/08 10:52:26;;;;;;;19.80;8.00;;;;;;;12.74;70.99;103485.03;2588117;55;20137;-73
2021/10/08 10:55:02;;;;;;;23.15;10.75;;;;;;;12.98;69.70;103484.13;2588266;55;20120;-72
2021/10/08 10:58:00;;;;;;;20.08;6.78;;;;;;;13.32;70.12;103488.03;2588174;55;20120;-72
2021/10/08 11:00:38;;;;;;;28.42;13.38;;;;;;;13.32;69.14;103477.31;2587696;55;20135;-73
2021/10/08 11:03:11;;;;;;;23.87;8.13;;;;;;;13.18;68.28;103476.09;2588408;55;20128;-73
2021/10/08 11:05:41;;;;;;;16.17;7.62;;;;;;;13.01;68.68;103474.13;2587757;55;20112;-73
2021/10/08 11:08:16;;;;;;;16.40;7.70;;;;;;;12.87;70.21;103472.03;2588083;55;20139;-73
2021/10/08 11:10:46;;;;;;;23.52;7.60;;;;;;;12.68;71.38;103481.75;2588078;55;20135;-71
2021/10/08 11:13:29;;;;;;;33.22;17.02;;;;;;;12.63;71.74;103477.47;2587773;55;20101;-72
2021/10/08 11:16:00;;;;;;;20.83;9.27;;;;;;;12.11;73.23;103473.19;2587794;55;20662;-72
2021/10/08 11:18:42;;;;;;;22.55;12.30;;;;;;;12.13;74.19;103481.16;2588282;55;20112;-72
2021/10/08 11:21:11;;;;;;;;;;;;;;;12.20;72.56;103481.78;2587906;55;20123;-72
2021/10/08 11:23:41;;;;;;;24.37;9.35;;;;;;;11.78;74.62;103480.66;2588298;55;19998;-72
2021/10/08 11:26:11;;;;;;;39.78;10.30;;;;;;;11.68;76.18;103488.13;2587421;55;20123;-74
2021/10/08 11:28:41;;;;;;;17.02;8.80;;;;;;;11.67;76.95;103483.69;2587882;55;20127;-74
2021/10/08 11:31:14;;;;;;;22.95;12.15;;;;;;;11.68;76.31;103477.41;2587947;55;20562;-72
2021/10/08 11:33:44;;;;;;;27.40;11.07;;;;;;;11.66;77.07;103487.31;2582667;55;20171;-73